HKL Eiryu — JD2311 — position and weather

sailwx.info

Track history (hours):
 
Tides and Currents Weather Stations Pressure Air Temp Water Temp Dewpoint Dewpoint Depression Visibility Wind Speed Wind Dir Waves Ship Positions

HKL Eiryu

Last reported at 2018-Jun-13 16:58 UTC. Time now 2018-Jun-20 03:13 UTC.
Position N 33°52' E 135°01'.

Length 75 m.

Type: Ship. MMSI: 431501876.

Date/timePositionNaut miles runAvg speedWind from/ knotsBaromVisibWave heightAir tempDewpointWater temp
2018-Jun-13 16:58N 33°52' E 135°01'611.9
2018-Jun-13 16:29N 33°56' E 134°57'611.7
2018-Jun-13 16:00N 34°00' E 134°53'35 1.1
2018-Jun-12 08:31N 34°29' E 134°28'014.4
2018-Jun-12 08:30N 34°29' E 134°28'812.8
2018-Jun-12 07:50N 34°34' E 134°36'412.8
2018-Jun-12 07:30N 34°37' E 134°41'  
2018-Jun-08 10:19N 34°28' E 134°29'412.5
2018-Jun-08 10:00N 34°29' E 134°34'612.5
2018-Jun-08 09:30N 34°32' E 134°41'712.9
2018-Jun-08 08:58N 34°34' E 134°48'913.4
2018-Jun-08 08:20N 34°37' E 134°58'513.5
2018-Jun-08 08:00N 34°36' E 135°03'612.3
2018-Jun-08 07:30N 34°36' E 135°11'612.6
2018-Jun-08 07:00N 34°36' E 135°18'6 1.0
2018-Jun-08 00:54N 34°35' E 135°26'0 0.6
2018-Jun-08 00:27N 34°35' E 135°25'0 0.0
2018-Jun-07 23:51N 34°35' E 135°25'0 0.0
2018-Jun-07 23:27N 34°35' E 135°25'0 0.0
2018-Jun-07 22:57N 34°35' E 135°25'0 0.0
2018-Jun-07 20:09N 34°35' E 135°25'0 0.1
2018-Jun-07 19:51N 34°35' E 135°25'0 0.0
2018-Jun-07 14:33N 34°35' E 135°25'0 0.1
2018-Jun-07 14:21N 34°35' E 135°25'0 0.0
2018-Jun-07 13:51N 34°35' E 135°25'0 0.0
2018-Jun-07 12:39N 34°35' E 135°25'0 0.0
2018-Jun-07 12:27N 34°35' E 135°25'0 0.0
2018-Jun-07 11:39N 34°35' E 135°25'0 0.0
2018-Jun-07 11:21N 34°35' E 135°25'0 0.0
2018-Jun-07 10:57N 34°35' E 135°25'0 0.0
2018-Jun-07 10:27N 34°35' E 135°25'0 0.0
2018-Jun-07 09:45N 34°35' E 135°25'0 0.1
2018-Jun-07 06:02N 34°35' E 135°26'0 0.0
2018-Jun-07 05:56N 34°35' E 135°26'0 0.0
2018-Jun-07 03:26N 34°35' E 135°26'0 0.0
2018-Jun-06 18:32N 34°35' E 135°26'0 0.0
2018-Jun-06 18:26N 34°35' E 135°26'0 0.0
2018-Jun-06 17:56N 34°35' E 135°26'0 0.0
2018-Jun-06 17:26N 34°35' E 135°26'0 0.0
2018-Jun-06 16:50N 34°35' E 135°26'0 0.0
2018-Jun-06 16:26N 34°35' E 135°26'0 0.0
2018-Jun-06 15:50N 34°35' E 135°26'0 0.0
2018-Jun-06 15:20N 34°35' E 135°26'0 0.0
2018-Jun-06 14:44N 34°35' E 135°26'0 0.0
2018-Jun-06 14:26N 34°35' E 135°26'0 0.0
2018-Jun-06 12:14N 34°35' E 135°26'0 0.0
2018-Jun-06 11:56N 34°35' E 135°26'0 0.0
2018-Jun-05 23:18N 34°35' E 135°26'1 4.8
2018-Jun-05 23:00N 34°36' E 135°24'3 0.1
2018-Jun-04 23:19N 34°32' E 135°24'410.7
2018-Jun-04 22:59N 34°33' E 135°19'510.7
2018-Jun-04 22:29N 34°34' E 135°13'711.6
2018-Jun-04 21:55N 34°35' E 135°05'1711.4
2018-Jun-04 20:25N 34°32' E 134°44'911.4
2018-Jun-04 19:36N 34°28' E 134°34'111.5
2018-Jun-04 19:29N 34°28' E 134°32'611.6
2018-Jun-04 18:59N 34°25' E 134°26'  
Track history (hours):
 
Tides and Currents Weather Stations Pressure Air Temp Water Temp Dewpoint Dewpoint Depression Visibility Wind Speed Wind Dir Waves Ship Positions

HKL Eiryu

Last reported at 2018-Jun-13 16:58 UTC. Time now 2018-Jun-20 03:13 UTC.
Position N 33°52' E 135°01'.

Length 75 m.

Type: Ship. MMSI: 431501876.

Date/timePositionNaut miles runAvg speedWind from/ knotsBaromVisibWave heightAir tempDewpointWater temp
2018-Jun-13 16:58N 33°52' E 135°01'611.9
2018-Jun-13 16:29N 33°56' E 134°57'611.7
2018-Jun-13 16:00N 34°00' E 134°53'35 1.1
2018-Jun-12 08:31N 34°29' E 134°28'014.4
2018-Jun-12 08:30N 34°29' E 134°28'812.8
2018-Jun-12 07:50N 34°34' E 134°36'412.8
2018-Jun-12 07:30N 34°37' E 134°41'  
2018-Jun-08 10:19N 34°28' E 134°29'412.5
2018-Jun-08 10:00N 34°29' E 134°34'612.5
2018-Jun-08 09:30N 34°32' E 134°41'712.9
2018-Jun-08 08:58N 34°34' E 134°48'913.4
2018-Jun-08 08:20N 34°37' E 134°58'513.5
2018-Jun-08 08:00N 34°36' E 135°03'612.3
2018-Jun-08 07:30N 34°36' E 135°11'612.6
2018-Jun-08 07:00N 34°36' E 135°18'6 1.0
2018-Jun-08 00:54N 34°35' E 135°26'0 0.6
2018-Jun-08 00:27N 34°35' E 135°25'0 0.0
2018-Jun-07 23:51N 34°35' E 135°25'0 0.0
2018-Jun-07 23:27N 34°35' E 135°25'0 0.0
2018-Jun-07 22:57N 34°35' E 135°25'0 0.0
2018-Jun-07 20:09N 34°35' E 135°25'0 0.1
2018-Jun-07 19:51N 34°35' E 135°25'0 0.0
2018-Jun-07 14:33N 34°35' E 135°25'0 0.1
2018-Jun-07 14:21N 34°35' E 135°25'0 0.0
2018-Jun-07 13:51N 34°35' E 135°25'0 0.0
2018-Jun-07 12:39N 34°35' E 135°25'0 0.0
2018-Jun-07 12:27N 34°35' E 135°25'0 0.0
2018-Jun-07 11:39N 34°35' E 135°25'0 0.0
2018-Jun-07 11:21N 34°35' E 135°25'0 0.0
2018-Jun-07 10:57N 34°35' E 135°25'0 0.0
2018-Jun-07 10:27N 34°35' E 135°25'0 0.0
2018-Jun-07 09:45N 34°35' E 135°25'0 0.1
2018-Jun-07 06:02N 34°35' E 135°26'0 0.0
2018-Jun-07 05:56N 34°35' E 135°26'0 0.0
2018-Jun-07 03:26N 34°35' E 135°26'0 0.0
2018-Jun-06 18:32N 34°35' E 135°26'0 0.0
2018-Jun-06 18:26N 34°35' E 135°26'0 0.0
2018-Jun-06 17:56N 34°35' E 135°26'0 0.0
2018-Jun-06 17:26N 34°35' E 135°26'0 0.0
2018-Jun-06 16:50N 34°35' E 135°26'0 0.0
2018-Jun-06 16:26N 34°35' E 135°26'0 0.0
2018-Jun-06 15:50N 34°35' E 135°26'0 0.0
2018-Jun-06 15:20N 34°35' E 135°26'0 0.0
2018-Jun-06 14:44N 34°35' E 135°26'0 0.0
2018-Jun-06 14:26N 34°35' E 135°26'0 0.0
2018-Jun-06 12:14N 34°35' E 135°26'0 0.0
2018-Jun-06 11:56N 34°35' E 135°26'0 0.0
2018-Jun-05 23:18N 34°35' E 135°26'1 4.8
2018-Jun-05 23:00N 34°36' E 135°24'3 0.1
2018-Jun-04 23:19N 34°32' E 135°24'410.7
2018-Jun-04 22:59N 34°33' E 135°19'510.7
2018-Jun-04 22:29N 34°34' E 135°13'711.6
2018-Jun-04 21:55N 34°35' E 135°05'1711.4
2018-Jun-04 20:25N 34°32' E 134°44'911.4
2018-Jun-04 19:36N 34°28' E 134°34'111.5
2018-Jun-04 19:29N 34°28' E 134°32'611.6
2018-Jun-04 18:59N 34°25' E 134°26'  

Dump ship's entire track history